sensor_id;sensor_type;location;lat;lon;timestamp;P1;durP1;ratioP1;P2;durP2;ratioP2
21677;SDS011;11000;50.360;7.582;2024-02-26T00:00:17;2.20;;;1.00;;
21677;SDS011;11000;50.360;7.582;2024-02-26T00:02:39;1.50;;;0.80;;
21677;SDS011;11000;50.360;7.582;2024-02-26T00:05:00;1.20;;;1.00;;
21677;SDS011;11000;50.360;7.582;2024-02-26T00:07:20;2.57;;;1.00;;
21677;SDS011;11000;50.360;7.582;2024-02-26T00:09:41;1.00;;;0.90;;
21677;SDS011;11000;50.360;7.582;2024-02-26T00:12:01;1.03;;;0.77;;
21677;SDS011;11000;50.360;7.582;2024-02-26T00:14:23;2.40;;;1.10;;
21677;SDS011;11000;50.360;7.582;2024-02-26T00:16:44;3.13;;;1.00;;
21677;SDS011;11000;50.360;7.582;2024-02-26T00:19:05;1.17;;;1.03;;
21677;SDS011;11000;50.360;7.582;2024-02-26T00:21:25;1.40;;;0.90;;
21677;SDS011;11000;50.360;7.582;2024-02-26T00:23:46;1.70;;;1.00;;
21677;SDS011;11000;50.360;7.582;2024-02-26T00:26:06;2.17;;;1.20;;
21677;SDS011;11000;50.360;7.582;2024-02-26T00:28:27;2.43;;;1.00;;
21677;SDS011;11000;50.360;7.582;2024-02-26T00:30:49;2.50;;;1.17;;
21677;SDS011;11000;50.360;7.582;2024-02-26T00:33:10;1.53;;;0.93;;
21677;SDS011;11000;50.360;7.582;2024-02-26T00:35:31;1.20;;;1.10;;
21677;SDS011;11000;50.360;7.582;2024-02-26T00:37:51;1.13;;;1.00;;
21677;SDS011;11000;50.360;7.582;2024-02-26T00:40:12;1.90;;;1.27;;
21677;SDS011;11000;50.360;7.582;2024-02-26T00:42:32;1.73;;;1.20;;
21677;SDS011;11000;50.360;7.582;2024-02-26T00:44:53;1.63;;;1.00;;
21677;SDS011;11000;50.360;7.582;2024-02-26T00:47:14;1.23;;;1.00;;
21677;SDS011;11000;50.360;7.582;2024-02-26T00:49:35;1.67;;;1.17;;
21677;SDS011;11000;50.360;7.582;2024-02-26T00:51:55;1.73;;;1.33;;
21677;SDS011;11000;50.360;7.582;2024-02-26T00:54:16;1.17;;;0.90;;
21677;SDS011;11000;50.360;7.582;2024-02-26T00:56:36;1.53;;;1.00;;
21677;SDS011;11000;50.360;7.582;2024-02-26T00:58:58;1.23;;;0.93;;
21677;SDS011;11000;50.360;7.582;2024-02-26T01:01:18;1.63;;;0.97;;
21677;SDS011;11000;50.360;7.582;2024-02-26T01:03:39;1.03;;;0.80;;
21677;SDS011;11000;50.360;7.582;2024-02-26T01:05:59;1.17;;;0.90;;
21677;SDS011;11000;50.360;7.582;2024-02-26T01:08:20;1.60;;;1.20;;
21677;SDS011;11000;50.360;7.582;2024-02-26T01:10:40;1.43;;;1.03;;
21677;SDS011;11000;50.360;7.582;2024-02-26T01:13:01;0.93;;;0.90;;
21677;SDS011;11000;50.360;7.582;2024-02-26T01:15:22;1.60;;;1.10;;
21677;SDS011;11000;50.360;7.582;2024-02-26T01:17:43;1.70;;;0.93;;
21677;SDS011;11000;50.360;7.582;2024-02-26T01:20:04;2.93;;;1.23;;
21677;SDS011;11000;50.360;7.582;2024-02-26T01:22:25;1.87;;;1.20;;
21677;SDS011;11000;50.360;7.582;2024-02-26T01:24:46;1.07;;;0.80;;
21677;SDS011;11000;50.360;7.582;2024-02-26T01:27:06;1.17;;;1.07;;
21677;SDS011;11000;50.360;7.582;2024-02-26T01:29:28;1.40;;;0.83;;
21677;SDS011;11000;50.360;7.582;2024-02-26T01:31:49;3.53;;;1.10;;
21677;SDS011;11000;50.360;7.582;2024-02-26T01:34:09;2.13;;;0.90;;
21677;SDS011;11000;50.360;7.582;2024-02-26T01:36:30;1.20;;;1.07;;
21677;SDS011;11000;50.360;7.582;2024-02-26T01:38:51;1.17;;;1.07;;
21677;SDS011;11000;50.360;7.582;2024-02-26T01:41:13;2.10;;;0.90;;
21677;SDS011;11000;50.360;7.582;2024-02-26T01:43:34;1.33;;;1.20;;
21677;SDS011;11000;50.360;7.582;2024-02-26T01:45:55;2.57;;;0.83;;
21677;SDS011;11000;50.360;7.582;2024-02-26T01:48:15;2.10;;;1.10;;
21677;SDS011;11000;50.360;7.582;2024-02-26T01:50:36;1.47;;;1.37;;
21677;SDS011;11000;50.360;7.582;2024-02-26T01:52:58;1.53;;;1.17;;
21677;SDS011;11000;50.360;7.582;2024-02-26T01:55:18;3.40;;;2.80;;
21677;SDS011;11000;50.360;7.582;2024-02-26T01:57:40;2.57;;;2.27;;
21677;SDS011;11000;50.360;7.582;2024-02-26T02:00:05;3.40;;;1.30;;
21677;SDS011;11000;50.360;7.582;2024-02-26T02:02:28;3.13;;;1.20;;
21677;SDS011;11000;50.360;7.582;2024-02-26T02:04:48;1.07;;;0.93;;
21677;SDS011;11000;50.360;7.582;2024-02-26T02:07:09;2.33;;;1.30;;
21677;SDS011;11000;50.360;7.582;2024-02-26T02:09:30;2.10;;;1.20;;
21677;SDS011;11000;50.360;7.582;2024-02-26T02:11:50;2.57;;;1.20;;
21677;SDS011;11000;50.360;7.582;2024-02-26T02:14:11;2.13;;;0.90;;
21677;SDS011;11000;50.360;7.582;2024-02-26T02:16:31;1.90;;;0.87;;
21677;SDS011;11000;50.360;7.582;2024-02-26T02:18:52;1.00;;;0.80;;
21677;SDS011;11000;50.360;7.582;2024-02-26T02:21:12;3.00;;;0.80;;
21677;SDS011;11000;50.360;7.582;2024-02-26T02:23:33;1.20;;;0.90;;
21677;SDS011;11000;50.360;7.582;2024-02-26T02:25:54;1.10;;;0.80;;
21677;SDS011;11000;50.360;7.582;2024-02-26T02:28:16;1.77;;;0.90;;
21677;SDS011;11000;50.360;7.582;2024-02-26T02:30:36;1.03;;;0.90;;
21677;SDS011;11000;50.360;7.582;2024-02-26T02:32:58;1.50;;;1.13;;
21677;SDS011;11000;50.360;7.582;2024-02-26T02:35:19;1.47;;;1.10;;
21677;SDS011;11000;50.360;7.582;2024-02-26T02:37:39;1.50;;;0.93;;
21677;SDS011;11000;50.360;7.582;2024-02-26T02:40:00;1.27;;;0.90;;
21677;SDS011;11000;50.360;7.582;2024-02-26T02:42:21;1.60;;;0.83;;
21677;SDS011;11000;50.360;7.582;2024-02-26T02:44:41;2.20;;;1.20;;
21677;SDS011;11000;50.360;7.582;2024-02-26T02:47:02;0.90;;;0.67;;
21677;SDS011;11000;50.360;7.582;2024-02-26T02:49:23;2.63;;;0.73;;
21677;SDS011;11000;50.360;7.582;2024-02-26T02:51:43;1.37;;;0.90;;
21677;SDS011;11000;50.360;7.582;2024-02-26T02:54:04;1.10;;;0.90;;
21677;SDS011;11000;50.360;7.582;2024-02-26T02:56:24;2.67;;;1.00;;
21677;SDS011;11000;50.360;7.582;2024-02-26T02:58:45;2.03;;;1.03;;
21677;SDS011;11000;50.360;7.582;2024-02-26T03:01:05;0.90;;;0.80;;
21677;SDS011;11000;50.360;7.582;2024-02-26T03:03:26;2.57;;;0.90;;
21677;SDS011;11000;50.360;7.582;2024-02-26T03:05:48;1.70;;;1.10;;
21677;SDS011;11000;50.360;7.582;2024-02-26T03:08:09;1.43;;;0.97;;
21677;SDS011;11000;50.360;7.582;2024-02-26T03:10:29;1.23;;;0.83;;
21677;SDS011;11000;50.360;7.582;2024-02-26T03:12:50;1.90;;;1.00;;
21677;SDS011;11000;50.360;7.582;2024-02-26T03:15:10;1.30;;;0.80;;
21677;SDS011;11000;50.360;7.582;2024-02-26T03:17:31;1.80;;;1.07;;
21677;SDS011;11000;50.360;7.582;2024-02-26T03:19:52;1.77;;;1.00;;
21677;SDS011;11000;50.360;7.582;2024-02-26T03:22:14;3.13;;;1.40;;
21677;SDS011;11000;50.360;7.582;2024-02-26T03:24:34;1.30;;;1.00;;
21677;SDS011;11000;50.360;7.582;2024-02-26T03:26:54;1.23;;;1.13;;
21677;SDS011;11000;50.360;7.582;2024-02-26T03:29:15;1.77;;;1.00;;
21677;SDS011;11000;50.360;7.582;2024-02-26T03:31:35;1.30;;;0.90;;
21677;SDS011;11000;50.360;7.582;2024-02-26T03:33:56;1.83;;;1.23;;
21677;SDS011;11000;50.360;7.582;2024-02-26T03:36:16;1.23;;;1.07;;
21677;SDS011;11000;50.360;7.582;2024-02-26T03:38:37;1.10;;;1.00;;
21677;SDS011;11000;50.360;7.582;2024-02-26T03:40:57;1.40;;;1.10;;
21677;SDS011;11000;50.360;7.582;2024-02-26T03:43:18;0.73;;;0.73;;
21677;SDS011;11000;50.360;7.582;2024-02-26T03:45:38;1.47;;;0.90;;
21677;SDS011;11000;50.360;7.582;2024-02-26T03:47:59;1.23;;;1.13;;
21677;SDS011;11000;50.360;7.582;2024-02-26T03:50:19;2.60;;;1.10;;
21677;SDS011;11000;50.360;7.582;2024-02-26T03:52:40;1.30;;;1.17;;
21677;SDS011;11000;50.360;7.582;2024-02-26T03:55:00;1.53;;;1.17;;
21677;SDS011;11000;50.360;7.582;2024-02-26T03:57:21;3.63;;;1.50;;
21677;SDS011;11000;50.360;7.582;2024-02-26T03:59:41;1.90;;;1.27;;
21677;SDS011;11000;50.360;7.582;2024-02-26T04:02:02;1.13;;;0.80;;
21677;SDS011;11000;50.360;7.582;2024-02-26T04:04:22;2.27;;;1.07;;
21677;SDS011;11000;50.360;7.582;2024-02-26T04:06:46;2.17;;;0.90;;
21677;SDS011;11000;50.360;7.582;2024-02-26T04:09:07;1.87;;;0.90;;
21677;SDS011;11000;50.360;7.582;2024-02-26T04:11:27;1.80;;;1.20;;
21677;SDS011;11000;50.360;7.582;2024-02-26T04:13:47;1.10;;;1.00;;
21677;SDS011;11000;50.360;7.582;2024-02-26T04:16:12;2.37;;;1.27;;
21677;SDS011;11000;50.360;7.582;2024-02-26T04:18:32;2.60;;;1.17;;
21677;SDS011;11000;50.360;7.582;2024-02-26T04:20:53;2.73;;;1.00;;
21677;SDS011;11000;50.360;7.582;2024-02-26T04:23:14;2.33;;;1.20;;
21677;SDS011;11000;50.360;7.582;2024-02-26T04:25:34;1.07;;;0.80;;
21677;SDS011;11000;50.360;7.582;2024-02-26T04:27:55;1.53;;;1.00;;
21677;SDS011;11000;50.360;7.582;2024-02-26T04:30:15;2.83;;;0.80;;
21677;SDS011;11000;50.360;7.582;2024-02-26T04:32:37;1.00;;;1.00;;
21677;SDS011;11000;50.360;7.582;2024-02-26T04:34:57;2.00;;;0.87;;
21677;SDS011;11000;50.360;7.582;2024-02-26T04:37:18;1.03;;;0.80;;
21677;SDS011;11000;50.360;7.582;2024-02-26T04:39:38;0.80;;;0.80;;
21677;SDS011;11000;50.360;7.582;2024-02-26T04:41:59;1.20;;;1.00;;
21677;SDS011;11000;50.360;7.582;2024-02-26T04:44:21;1.47;;;0.73;;
21677;SDS011;11000;50.360;7.582;2024-02-26T04:46:41;1.33;;;1.10;;
21677;SDS011;11000;50.360;7.582;2024-02-26T04:49:02;0.93;;;0.90;;
21677;SDS011;11000;50.360;7.582;2024-02-26T04:51:22;0.97;;;0.90;;
21677;SDS011;11000;50.360;7.582;2024-02-26T04:53:43;4.47;;;0.90;;
21677;SDS011;11000;50.360;7.582;2024-02-26T04:56:03;2.07;;;0.83;;
21677;SDS011;11000;50.360;7.582;2024-02-26T04:58:24;1.17;;;1.00;;
21677;SDS011;11000;50.360;7.582;2024-02-26T05:00:45;0.80;;;0.77;;
21677;SDS011;11000;50.360;7.582;2024-02-26T05:03:05;2.50;;;1.20;;
21677;SDS011;11000;50.360;7.582;2024-02-26T05:05:27;1.93;;;0.90;;
21677;SDS011;11000;50.360;7.582;2024-02-26T05:07:48;2.13;;;0.80;;
21677;SDS011;11000;50.360;7.582;2024-02-26T05:10:08;1.03;;;0.93;;
21677;SDS011;11000;50.360;7.582;2024-02-26T05:12:29;1.00;;;0.90;;
21677;SDS011;11000;50.360;7.582;2024-02-26T05:14:50;0.80;;;0.80;;
21677;SDS011;11000;50.360;7.582;2024-02-26T05:17:10;1.33;;;1.00;;
21677;SDS011;11000;50.360;7.582;2024-02-26T05:19:31;1.87;;;1.20;;
21677;SDS011;11000;50.360;7.582;2024-02-26T05:21:52;1.07;;;0.97;;
21677;SDS011;11000;50.360;7.582;2024-02-26T05:24:12;1.43;;;0.90;;
21677;SDS011;11000;50.360;7.582;2024-02-26T05:26:35;1.20;;;0.90;;
21677;SDS011;11000;50.360;7.582;2024-02-26T05:28:56;2.07;;;1.10;;
21677;SDS011;11000;50.360;7.582;2024-02-26T05:31:19;1.33;;;1.20;;
21677;SDS011;11000;50.360;7.582;2024-02-26T05:33:39;1.93;;;1.10;;
21677;SDS011;11000;50.360;7.582;2024-02-26T05:36:00;1.37;;;1.10;;
21677;SDS011;11000;50.360;7.582;2024-02-26T05:38:23;1.53;;;1.33;;
21677;SDS011;11000;50.360;7.582;2024-02-26T05:40:44;1.83;;;1.00;;
21677;SDS011;11000;50.360;7.582;2024-02-26T05:43:05;3.20;;;1.40;;
21677;SDS011;11000;50.360;7.582;2024-02-26T05:45:26;1.27;;;1.17;;
21677;SDS011;11000;50.360;7.582;2024-02-26T05:47:47;1.27;;;1.17;;
21677;SDS011;11000;50.360;7.582;2024-02-26T05:50:10;1.20;;;1.10;;
21677;SDS011;11000;50.360;7.582;2024-02-26T05:52:31;3.33;;;1.40;;
21677;SDS011;11000;50.360;7.582;2024-02-26T05:54:52;1.60;;;1.50;;
21677;SDS011;11000;50.360;7.582;2024-02-26T05:57:13;4.40;;;1.70;;
21677;SDS011;11000;50.360;7.582;2024-02-26T05:59:33;1.63;;;1.40;;
21677;SDS011;11000;50.360;7.582;2024-02-26T06:01:54;3.00;;;1.40;;
21677;SDS011;11000;50.360;7.582;2024-02-26T06:04:14;1.67;;;1.17;;
21677;SDS011;11000;50.360;7.582;2024-02-26T06:06:36;2.33;;;1.33;;
21677;SDS011;11000;50.360;7.582;2024-02-26T06:08:57;2.60;;;1.60;;
21677;SDS011;11000;50.360;7.582;2024-02-26T06:11:18;2.13;;;1.27;;
21677;SDS011;11000;50.360;7.582;2024-02-26T06:13:39;2.47;;;1.70;;
21677;SDS011;11000;50.360;7.582;2024-02-26T06:15:59;3.37;;;1.80;;
21677;SDS011;11000;50.360;7.582;2024-02-26T06:18:20;2.73;;;1.50;;
21677;SDS011;11000;50.360;7.582;2024-02-26T06:20:40;2.30;;;1.47;;
21677;SDS011;11000;50.360;7.582;2024-02-26T06:23:01;1.83;;;1.60;;
21677;SDS011;11000;50.360;7.582;2024-02-26T06:25:21;2.07;;;1.40;;
21677;SDS011;11000;50.360;7.582;2024-02-26T06:27:42;2.00;;;1.70;;
21677;SDS011;11000;50.360;7.582;2024-02-26T06:30:03;2.13;;;1.70;;
21677;SDS011;11000;50.360;7.582;2024-02-26T06:32:24;3.00;;;1.70;;
21677;SDS011;11000;50.360;7.582;2024-02-26T06:34:44;2.80;;;2.27;;
21677;SDS011;11000;50.360;7.582;2024-02-26T06:37:05;3.10;;;1.60;;
21677;SDS011;11000;50.360;7.582;2024-02-26T06:39:25;1.97;;;1.60;;
21677;SDS011;11000;50.360;7.582;2024-02-26T06:41:46;2.50;;;1.70;;
21677;SDS011;11000;50.360;7.582;2024-02-26T06:44:06;2.47;;;1.40;;
21677;SDS011;11000;50.360;7.582;2024-02-26T06:46:27;2.10;;;1.80;;
21677;SDS011;11000;50.360;7.582;2024-02-26T06:48:50;3.17;;;1.60;;
21677;SDS011;11000;50.360;7.582;2024-02-26T06:51:11;2.23;;;2.00;;
21677;SDS011;11000;50.360;7.582;2024-02-26T06:53:32;2.10;;;1.80;;
21677;SDS011;11000;50.360;7.582;2024-02-26T06:55:52;2.93;;;1.83;;
21677;SDS011;11000;50.360;7.582;2024-02-26T06:58:13;3.13;;;1.90;;
21677;SDS011;11000;50.360;7.582;2024-02-26T07:00:34;2.80;;;1.90;;
21677;SDS011;11000;50.360;7.582;2024-02-26T07:02:55;2.70;;;1.97;;
21677;SDS011;11000;50.360;7.582;2024-02-26T07:05:15;2.40;;;2.20;;
21677;SDS011;11000;50.360;7.582;2024-02-26T07:07:36;7.57;;;2.43;;
21677;SDS011;11000;50.360;7.582;2024-02-26T07:09:56;3.97;;;2.40;;
21677;SDS011;11000;50.360;7.582;2024-02-26T07:12:17;3.07;;;2.40;;
21677;SDS011;11000;50.360;7.582;2024-02-26T07:14:39;4.80;;;2.50;;
21677;SDS011;11000;50.360;7.582;2024-02-26T07:17:00;2.77;;;2.53;;
21677;SDS011;11000;50.360;7.582;2024-02-26T07:19:20;3.97;;;2.60;;
21677;SDS011;11000;50.360;7.582;2024-02-26T07:21:41;5.03;;;2.50;;
21677;SDS011;11000;50.360;7.582;2024-02-26T07:24:02;4.07;;;2.60;;
21677;SDS011;11000;50.360;7.582;2024-02-26T07:26:22;2.40;;;2.20;;
21677;SDS011;11000;50.360;7.582;2024-02-26T07:28:45;3.53;;;2.80;;
21677;SDS011;11000;50.360;7.582;2024-02-26T07:31:05;5.83;;;3.10;;
21677;SDS011;11000;50.360;7.582;2024-02-26T07:33:26;4.60;;;3.13;;
21677;SDS011;11000;50.360;7.582;2024-02-26T07:35:46;3.07;;;2.77;;
21677;SDS011;11000;50.360;7.582;2024-02-26T07:38:07;4.53;;;3.07;;
21677;SDS011;11000;50.360;7.582;2024-02-26T07:40:28;3.77;;;3.10;;
21677;SDS011;11000;50.360;7.582;2024-02-26T07:42:48;5.63;;;3.13;;
21677;SDS011;11000;50.360;7.582;2024-02-26T07:45:09;5.40;;;3.60;;
21677;SDS011;11000;50.360;7.582;2024-02-26T07:47:30;4.40;;;3.40;;
21677;SDS011;11000;50.360;7.582;2024-02-26T07:49:50;3.20;;;2.90;;
21677;SDS011;11000;50.360;7.582;2024-02-26T07:52:11;5.57;;;3.43;;
21677;SDS011;11000;50.360;7.582;2024-02-26T07:54:31;5.37;;;3.17;;
21677;SDS011;11000;50.360;7.582;2024-02-26T07:56:52;4.63;;;3.03;;
21677;SDS011;11000;50.360;7.582;2024-02-26T07:59:12;4.13;;;3.03;;
21677;SDS011;11000;50.360;7.582;2024-02-26T08:01:34;3.90;;;3.23;;
21677;SDS011;11000;50.360;7.582;2024-02-26T08:03:54;3.53;;;3.20;;
21677;SDS011;11000;50.360;7.582;2024-02-26T08:06:16;7.33;;;3.27;;
21677;SDS011;11000;50.360;7.582;2024-02-26T08:08:36;5.53;;;3.30;;
21677;SDS011;11000;50.360;7.582;2024-02-26T08:10:57;3.07;;;2.77;;
21677;SDS011;11000;50.360;7.582;2024-02-26T08:13:17;6.03;;;3.20;;
21677;SDS011;11000;50.360;7.582;2024-02-26T08:15:38;4.77;;;3.17;;
21677;SDS011;11000;50.360;7.582;2024-02-26T08:17:58;3.03;;;2.80;;
21677;SDS011;11000;50.360;7.582;2024-02-26T08:20:20;3.80;;;3.00;;
21677;SDS011;11000;50.360;7.582;2024-02-26T08:22:40;5.07;;;2.93;;
21677;SDS011;11000;50.360;7.582;2024-02-26T08:25:01;3.53;;;2.60;;
21677;SDS011;11000;50.360;7.582;2024-02-26T08:27:26;2.83;;;2.60;;
21677;SDS011;11000;50.360;7.582;2024-02-26T08:29:47;4.07;;;2.90;;
21677;SDS011;11000;50.360;7.582;2024-02-26T08:32:07;3.57;;;2.93;;
21677;SDS011;11000;50.360;7.582;2024-02-26T08:34:28;7.87;;;3.03;;
21677;SDS011;11000;50.360;7.582;2024-02-26T08:36:48;2.90;;;2.70;;
21677;SDS011;11000;50.360;7.582;2024-02-26T08:39:09;4.60;;;2.70;;
21677;SDS011;11000;50.360;7.582;2024-02-26T08:41:29;4.50;;;2.80;;
21677;SDS011;11000;50.360;7.582;2024-02-26T08:43:50;3.97;;;2.53;;
21677;SDS011;11000;50.360;7.582;2024-02-26T08:46:12;3.40;;;2.73;;
21677;SDS011;11000;50.360;7.582;2024-02-26T08:48:32;4.53;;;3.20;;
21677;SDS011;11000;50.360;7.582;2024-02-26T08:50:53;3.17;;;2.60;;
21677;SDS011;11000;50.360;7.582;2024-02-26T08:53:13;3.30;;;2.70;;
21677;SDS011;11000;50.360;7.582;2024-02-26T08:55:34;4.60;;;2.70;;
21677;SDS011;11000;50.360;7.582;2024-02-26T08:57:54;3.03;;;2.67;;
21677;SDS011;11000;50.360;7.582;2024-02-26T09:00:16;3.73;;;2.90;;
21677;SDS011;11000;50.360;7.582;2024-02-26T09:02:39;3.37;;;3.07;;
21677;SDS011;11000;50.360;7.582;2024-02-26T09:05:00;3.07;;;2.77;;
21677;SDS011;11000;50.360;7.582;2024-02-26T09:07:21;3.73;;;3.00;;
21677;SDS011;11000;50.360;7.582;2024-02-26T09:09:41;4.10;;;3.37;;
21677;SDS011;11000;50.360;7.582;2024-02-26T09:12:02;3.83;;;2.97;;
21677;SDS011;11000;50.360;7.582;2024-02-26T09:14:23;3.33;;;2.97;;
21677;SDS011;11000;50.360;7.582;2024-02-26T09:16:44;3.67;;;2.83;;
21677;SDS011;11000;50.360;7.582;2024-02-26T09:19:04;4.03;;;3.03;;
21677;SDS011;11000;50.360;7.582;2024-02-26T09:21:25;3.37;;;2.97;;
21677;SDS011;11000;50.360;7.582;2024-02-26T09:23:46;2.63;;;2.43;;
21677;SDS011;11000;50.360;7.582;2024-02-26T09:26:06;3.50;;;2.30;;
21677;SDS011;11000;50.360;7.582;2024-02-26T09:28:27;2.93;;;2.70;;
21677;SDS011;11000;50.360;7.582;2024-02-26T09:30:47;3.23;;;2.63;;
21677;SDS011;11000;50.360;7.582;2024-02-26T09:33:09;2.80;;;2.43;;
21677;SDS011;11000;50.360;7.582;2024-02-26T09:35:29;3.90;;;2.57;;
21677;SDS011;11000;50.360;7.582;2024-02-26T09:37:50;4.77;;;3.10;;
21677;SDS011;11000;50.360;7.582;2024-02-26T09:40:11;2.90;;;2.57;;
21677;SDS011;11000;50.360;7.582;2024-02-26T09:42:34;4.03;;;2.77;;
21677;SDS011;11000;50.360;7.582;2024-02-26T09:44:55;4.03;;;3.03;;
21677;SDS011;11000;50.360;7.582;2024-02-26T09:47:17;4.60;;;2.97;;
21677;SDS011;11000;50.360;7.582;2024-02-26T09:49:39;3.10;;;2.63;;
21677;SDS011;11000;50.360;7.582;2024-02-26T09:52:01;3.20;;;2.90;;
21677;SDS011;11000;50.360;7.582;2024-02-26T09:54:24;2.90;;;2.67;;
21677;SDS011;11000;50.360;7.582;2024-02-26T09:56:48;3.23;;;2.83;;
21677;SDS011;11000;50.360;7.582;2024-02-26T09:59:13;3.50;;;2.77;;
21677;SDS011;11000;50.360;7.582;2024-02-26T10:01:37;7.50;;;3.30;;
21677;SDS011;11000;50.360;7.582;2024-02-26T10:04:01;2.70;;;2.50;;
21677;SDS011;11000;50.360;7.582;2024-02-26T10:06:23;2.97;;;2.67;;
21677;SDS011;11000;50.360;7.582;2024-02-26T10:08:46;3.97;;;2.83;;
21677;SDS011;11000;50.360;7.582;2024-02-26T10:11:08;2.60;;;2.40;;
21677;SDS011;11000;50.360;7.582;2024-02-26T10:13:30;3.30;;;2.63;;
21677;SDS011;11000;50.360;7.582;2024-02-26T10:15:50;4.33;;;2.43;;
21677;SDS011;11000;50.360;7.582;2024-02-26T10:18:11;4.57;;;3.00;;
21677;SDS011;11000;50.360;7.582;2024-02-26T10:20:32;2.93;;;2.50;;
21677;SDS011;11000;50.360;7.582;2024-02-26T10:22:53;2.87;;;2.67;;
21677;SDS011;11000;50.360;7.582;2024-02-26T10:25:13;3.47;;;2.97;;
21677;SDS011;11000;50.360;7.582;2024-02-26T10:27:34;3.03;;;2.73;;
21677;SDS011;11000;50.360;7.582;2024-02-26T10:29:58;2.80;;;2.60;;
21677;SDS011;11000;50.360;7.582;2024-02-26T10:32:23;3.23;;;2.63;;
21677;SDS011;11000;50.360;7.582;2024-02-26T10:34:44;3.37;;;2.63;;
21677;SDS011;11000;50.360;7.582;2024-02-26T10:37:05;3.10;;;2.80;;
21677;SDS011;11000;50.360;7.582;2024-02-26T10:39:25;4.50;;;2.77;;
21677;SDS011;11000;50.360;7.582;2024-02-26T10:41:46;4.00;;;2.47;;
21677;SDS011;11000;50.360;7.582;2024-02-26T10:44:08;4.67;;;2.90;;
21677;SDS011;11000;50.360;7.582;2024-02-26T10:46:30;2.83;;;2.37;;
21677;SDS011;11000;50.360;7.582;2024-02-26T10:48:51;4.47;;;2.93;;
21677;SDS011;11000;50.360;7.582;2024-02-26T10:51:12;4.37;;;2.90;;
21677;SDS011;11000;50.360;7.582;2024-02-26T10:53:34;3.50;;;2.77;;
21677;SDS011;11000;50.360;7.582;2024-02-26T10:56:03;3.87;;;3.23;;
21677;SDS011;11000;50.360;7.582;2024-02-26T10:58:25;4.03;;;3.20;;
21677;SDS011;11000;50.360;7.582;2024-02-26T11:00:47;4.20;;;2.80;;
21677;SDS011;11000;50.360;7.582;2024-02-26T11:03:10;4.13;;;2.80;;
21677;SDS011;11000;50.360;7.582;2024-02-26T11:05:32;4.03;;;3.20;;
21677;SDS011;11000;50.360;7.582;2024-02-26T11:07:53;3.43;;;2.93;;
21677;SDS011;11000;50.360;7.582;2024-02-26T11:10:15;4.70;;;3.10;;
21677;SDS011;11000;50.360;7.582;2024-02-26T11:12:36;3.10;;;2.60;;
21677;SDS011;11000;50.360;7.582;2024-02-26T11:14:59;3.67;;;3.10;;
21677;SDS011;11000;50.360;7.582;2024-02-26T11:17:21;4.20;;;2.93;;
21677;SDS011;11000;50.360;7.582;2024-02-26T11:19:43;3.27;;;2.97;;
21677;SDS011;11000;50.360;7.582;2024-02-26T11:22:04;3.00;;;2.70;;
21677;SDS011;11000;50.360;7.582;2024-02-26T11:24:25;4.63;;;3.07;;
21677;SDS011;11000;50.360;7.582;2024-02-26T11:26:47;3.20;;;2.90;;
21677;SDS011;11000;50.360;7.582;2024-02-26T11:29:20;4.47;;;3.20;;
21677;SDS011;11000;50.360;7.582;2024-02-26T11:31:42;6.47;;;3.27;;
21677;SDS011;11000;50.360;7.582;2024-02-26T11:34:02;3.20;;;2.90;;
21677;SDS011;11000;50.360;7.582;2024-02-26T11:36:23;5.73;;;3.50;;
21677;SDS011;11000;50.360;7.582;2024-02-26T11:38:44;5.23;;;3.93;;
21677;SDS011;11000;50.360;7.582;2024-02-26T11:41:07;3.97;;;3.20;;
21677;SDS011;11000;50.360;7.582;2024-02-26T11:44:13;3.23;;;2.70;;
21677;SDS011;11000;50.360;7.582;2024-02-26T11:46:24;4.50;;;2.83;;
21677;SDS011;11000;50.360;7.582;2024-02-26T11:48:50;3.10;;;2.80;;
21677;SDS011;11000;50.360;7.582;2024-02-26T11:51:10;4.33;;;3.20;;
21677;SDS011;11000;50.360;7.582;2024-02-26T11:53:31;4.33;;;2.80;;
21677;SDS011;11000;50.360;7.582;2024-02-26T11:58:38;4.60;;;3.23;;
21677;SDS011;11000;50.360;7.582;2024-02-26T12:01:02;4.17;;;3.77;;
21677;SDS011;11000;50.360;7.582;2024-02-26T12:03:23;3.37;;;3.07;;
21677;SDS011;11000;50.360;7.582;2024-02-26T12:05:44;5.77;;;3.30;;
21677;SDS011;11000;50.360;7.582;2024-02-26T12:08:06;4.27;;;3.30;;
21677;SDS011;11000;50.360;7.582;2024-02-26T12:10:28;7.10;;;3.60;;
21677;SDS011;11000;50.360;7.582;2024-02-26T12:15:22;3.77;;;3.40;;
21677;SDS011;11000;50.360;7.582;2024-02-26T12:17:43;4.63;;;3.10;;
21677;SDS011;11000;50.360;7.582;2024-02-26T12:20:10;4.10;;;3.30;;
21677;SDS011;11000;50.360;7.582;2024-02-26T12:22:31;4.47;;;3.87;;
21677;SDS011;11000;50.360;7.582;2024-02-26T12:25:00;4.80;;;3.60;;
21677;SDS011;11000;50.360;7.582;2024-02-26T12:27:23;3.67;;;3.13;;
21677;SDS011;11000;50.360;7.582;2024-02-26T12:29:43;3.37;;;2.97;;
21677;SDS011;11000;50.360;7.582;2024-02-26T12:32:04;4.43;;;3.20;;
21677;SDS011;11000;50.360;7.582;2024-02-26T12:34:25;5.67;;;3.00;;
21677;SDS011;11000;50.360;7.582;2024-02-26T12:36:46;4.07;;;3.20;;
21677;SDS011;11000;50.360;7.582;2024-02-26T12:39:07;3.70;;;3.27;;
21677;SDS011;11000;50.360;7.582;2024-02-26T12:41:28;3.97;;;3.30;;
21677;SDS011;11000;50.360;7.582;2024-02-26T12:43:52;3.80;;;2.97;;
21677;SDS011;11000;50.360;7.582;2024-02-26T12:46:13;4.37;;;3.60;;
21677;SDS011;11000;50.360;7.582;2024-02-26T12:48:35;4.00;;;3.30;;
21677;SDS011;11000;50.360;7.582;2024-02-26T12:50:56;5.53;;;3.83;;
21677;SDS011;11000;50.360;7.582;2024-02-26T12:53:17;5.03;;;3.50;;
21677;SDS011;11000;50.360;7.582;2024-02-26T12:55:37;4.37;;;3.33;;
21677;SDS011;11000;50.360;7.582;2024-02-26T12:58:00;3.87;;;3.37;;
21677;SDS011;11000;50.360;7.582;2024-02-26T13:00:21;4.07;;;3.67;;
21677;SDS011;11000;50.360;7.582;2024-02-26T13:02:45;5.43;;;4.03;;
21677;SDS011;11000;50.360;7.582;2024-02-26T13:05:06;5.37;;;3.73;;
21677;SDS011;11000;50.360;7.582;2024-02-26T13:07:28;4.73;;;3.37;;
21677;SDS011;11000;50.360;7.582;2024-02-26T13:09:48;5.77;;;3.40;;
21677;SDS011;11000;50.360;7.582;2024-02-26T13:12:10;4.43;;;3.40;;
21677;SDS011;11000;50.360;7.582;2024-02-26T13:14:32;4.63;;;3.53;;
21677;SDS011;11000;50.360;7.582;2024-02-26T13:16:56;4.33;;;3.37;;
21677;SDS011;11000;50.360;7.582;2024-02-26T13:19:17;5.77;;;3.67;;
21677;SDS011;11000;50.360;7.582;2024-02-26T13:21:38;3.97;;;3.37;;
21677;SDS011;11000;50.360;7.582;2024-02-26T13:23:59;6.53;;;3.60;;
21677;SDS011;11000;50.360;7.582;2024-02-26T13:26:21;4.10;;;3.33;;
21677;SDS011;11000;50.360;7.582;2024-02-26T13:28:43;5.20;;;3.83;;
21677;SDS011;11000;50.360;7.582;2024-02-26T13:31:04;5.10;;;3.97;;
21677;SDS011;11000;50.360;7.582;2024-02-26T13:33:28;5.37;;;4.03;;
21677;SDS011;11000;50.360;7.582;2024-02-26T13:35:49;5.03;;;4.10;;
21677;SDS011;11000;50.360;7.582;2024-02-26T13:38:10;6.33;;;4.13;;
21677;SDS011;11000;50.360;7.582;2024-02-26T13:40:32;5.10;;;3.50;;
21677;SDS011;11000;50.360;7.582;2024-02-26T13:42:53;6.37;;;3.90;;
21677;SDS011;11000;50.360;7.582;2024-02-26T13:45:14;4.67;;;4.13;;
21677;SDS011;11000;50.360;7.582;2024-02-26T13:47:35;7.83;;;4.27;;
21677;SDS011;11000;50.360;7.582;2024-02-26T13:49:55;4.57;;;3.87;;
21677;SDS011;11000;50.360;7.582;2024-02-26T13:52:16;4.80;;;3.53;;
21677;SDS011;11000;50.360;7.582;2024-02-26T13:54:36;4.47;;;3.87;;
21677;SDS011;11000;50.360;7.582;2024-02-26T13:56:58;6.27;;;3.83;;
21677;SDS011;11000;50.360;7.582;2024-02-26T13:59:19;4.83;;;3.87;;
21677;SDS011;11000;50.360;7.582;2024-02-26T14:01:39;4.93;;;3.73;;
21677;SDS011;11000;50.360;7.582;2024-02-26T14:04:00;3.70;;;3.40;;
21677;SDS011;11000;50.360;7.582;2024-02-26T14:06:22;4.50;;;3.40;;
21677;SDS011;11000;50.360;7.582;2024-02-26T14:08:43;6.00;;;3.70;;
21677;SDS011;11000;50.360;7.582;2024-02-26T14:11:03;4.60;;;3.80;;
21677;SDS011;11000;50.360;7.582;2024-02-26T14:13:24;5.50;;;3.93;;
21677;SDS011;11000;50.360;7.582;2024-02-26T14:15:45;4.57;;;3.70;;